Wautoma, WI

3:05 PM CDT on September 30, 2014 (GMT -0500)
Mt. Morris Township | Change Station
CLOSE
Current Station
Personal Weather Station
Location: Wautoma, WI
Elevation: 912 ft
Nearby Weather Stations

Elev 912 ft 44.08 °N, 89.21 °W | Updated 13 minutes ago

Overcast
Overcast
50.4 °F
Feels Like 50.4 °F
N
5.8
Wind Variable Wind from ESE

Today
High -- | Low -- °F
--% Chance of Precip.
Yesterday
High -- | Low -- °F
Precip. -- in
6:53 AM 6:39 PM
Waxing Crescent, 39% visible
Pressure 30.08 in
Visibility 10.0 miles
Clouds Overcast 1900 ft
Dew Point 45 °F
Humidity 81%
Rainfall 0.00 in
Snow Depth Not available.
UV 1 out of 12
Pollen 1.60 out of 12
Air Quality Not available.
Flu Activity Not available.
METAR KPCZ 301935Z AUTO 06005KT 10SM OVC019 11/06 A3008 RMK AO2 T01100058

More Conditions Fewer Conditions

Pressure 30.08 in
Visibility 10.0 miles
Clouds Overcast 1900 ft
Dew Point 45 °F
Humidity 81%
Rainfall 0.00 in
Snow Depth Not available.
UV 1 out of 12
Pollen 1.60 out of 12
Air Quality Not available.
Flu Activity Not available.
METAR KPCZ 301935Z AUTO 06005KT 10SM OVC019 11/06 A3008 RMK AO2 T01100058

More Conditions Fewer Conditions

10-Day Weather Forecast

Almanac

Astronomy

Sep. 30, 2014 Rise Set
Actual Time 6:53 AM CDT 6:39 PM CDT
Civil Twilight 6:24 AM CDT 7:08 PM CDT
Nautical Twilight 5:51 AM CDT 7:41 PM CDT
Astronomical Twilight 5:17 AM CDT 8:15 PM CDT
Moon 1:11 PM CDT 11:00 PM CDT
Length of Visible Light 12h 43m
Length of Day
11h 46m
Tomorrow will be 3m 0s shorter.
Waxing Crescent, 39% of the Moon is Illuminated
Today
Waxing Crescent
Oct 1
First Quarter
Oct 8
Full
Oct 15
Last Quarter
Oct 23
New

Today's Extremes

State Highs State Lows

Community

WunderPhotos

Upload Photos

1,757,736 photos uploaded!

Nearby

Snow Depth

Station Depth Elevation
No new snow has been reported.

Earthquake Activity

City Distance Mag. Time & Date
No recent earthquake activity has been reported nearby.
Minimum magnitude displayed is 2.5.

Coastal Water Temperatures

Place Temperature
No Stations Reporting

Nearby Weather Stations